PWSweather.com
Personal Weather Stations
Station Observations
CANDIOTINO
Barrio Candioti Norte, Santa FeAR 3000

Barrio Candioti NorteSanta FeAR 3000

Lat: -31.632778, Lon: -60.695556

Elevation: 69

Station Type: WH-1081

http://www.eltiempoensantafe.com.ar

High Low Average
Temperature 59.4°F15.2°C 49.6°F9.8°C 53.5°F11.9°C
Dew Point 48.1°F8.9°C 39.1°F3.9°C 44.7°F7.1°C
Winds 14.5 mph 23.3 kmh 3.1 mph 5.0 kmh 7.0 mph S11.3 kmh S
Wind Gusts 19.7 mph31.7 kmh 8.3 mph13.4 kmh 14.0 mph22.5 kmh
Humidity 86% 52% 73%
Pressure 30.21 in1023.0 mb 30.02 in1016.6 mb -
Precipitation 0.00 in0.0 mm - -
Hour Temp Dew Point Humidity Winds Wind Gusts Pressure Precip Precip Rate Daily Precip Total
12:00 AM 53.4°F11.9°C 47.1°F8.4°C 79% 6.0 mph S9.7 kmh S 19.7 mph31.7 kmh 30.03 in1016.9 mb 0.00 in0.0 mm 0.00 in0.0 mm 0.00 in0.0 mm
12:15 AM 53.4°F11.9°C 47.4°F8.6°C 80% 9.2 mph S14.8 kmh S 18.3 mph29.5 kmh 30.03 in1016.9 mb 0.00 in0.0 mm 0.00 in0.0 mm 0.00 in0.0 mm
12:30 AM 53.2°F11.8°C 47.2°F8.4°C 80% 8.3 mph S13.4 kmh S 18.3 mph29.5 kmh 30.03 in1016.9 mb 0.00 in0.0 mm 0.00 in0.0 mm 0.00 in0.0 mm
12:45 AM 53.2°F11.8°C 47.6°F8.7°C 81% 7.6 mph S12.2 kmh S 19.0 mph30.6 kmh 30.04 in1017.3 mb 0.00 in0.0 mm 0.00 in0.0 mm 0.00 in0.0 mm
01:00 AM 53.4°F11.9°C 47.7°F8.7°C 81% 8.3 mph S13.4 kmh S 19.0 mph30.6 kmh 30.05 in1017.6 mb 0.00 in0.0 mm 0.00 in0.0 mm 0.00 in0.0 mm
01:15 AM 53.4°F11.9°C 47.7°F8.7°C 81% 8.3 mph S13.4 kmh S 13.6 mph21.9 kmh 30.05 in1017.6 mb 0.00 in0.0 mm 0.00 in0.0 mm 0.00 in0.0 mm
01:30 AM 53.2°F11.8°C 47.6°F8.7°C 81% 9.2 mph SSW14.8 kmh SSW 13.0 mph20.9 kmh 30.04 in1017.3 mb 0.00 in0.0 mm 0.00 in0.0 mm 0.00 in0.0 mm
01:45 AM 53.2°F11.8°C 47.9°F8.8°C 82% 5.4 mph S8.7 kmh S 12.1 mph19.5 kmh 30.05 in1017.6 mb 0.00 in0.0 mm 0.00 in0.0 mm 0.00 in0.0 mm
02:00 AM 53.4°F11.9°C 48.1°F8.9°C 82% 7.6 mph S12.2 kmh S 9.8 mph15.8 kmh 30.04 in1017.3 mb 0.00 in0.0 mm 0.00 in0.0 mm 0.00 in0.0 mm
02:15 AM 53.4°F11.9°C 48.1°F8.9°C 82% 8.3 mph S13.4 kmh S 15.9 mph25.6 kmh 30.05 in1017.6 mb 0.00 in0.0 mm 0.00 in0.0 mm 0.00 in0.0 mm
02:30 AM 53.2°F11.8°C 47.9°F8.8°C 82% 7.6 mph S12.2 kmh S 16.8 mph27.0 kmh 30.05 in1017.6 mb 0.00 in0.0 mm 0.00 in0.0 mm 0.00 in0.0 mm
02:45 AM 53.2°F11.8°C 47.6°F8.7°C 81% 7.6 mph S12.2 kmh S 13.0 mph20.9 kmh 30.04 in1017.3 mb 0.00 in0.0 mm 0.00 in0.0 mm 0.00 in0.0 mm
03:00 AM 53.1°F11.7°C 47.7°F8.7°C 82% 4.5 mph S7.2 kmh S 13.6 mph21.9 kmh 30.04 in1017.3 mb 0.00 in0.0 mm 0.00 in0.0 mm 0.00 in0.0 mm
03:15 AM 53.1°F11.7°C 47.7°F8.7°C 82% 9.2 mph S14.8 kmh S 15.2 mph24.5 kmh 30.04 in1017.3 mb 0.00 in0.0 mm 0.00 in0.0 mm 0.00 in0.0 mm
03:30 AM 53.1°F11.7°C 47.7°F8.7°C 82% 10.7 mph S17.2 kmh S 17.4 mph28.0 kmh 30.05 in1017.6 mb 0.00 in0.0 mm 0.00 in0.0 mm 0.00 in0.0 mm
03:45 AM 53.1°F11.7°C 47.4°F8.6°C 81% 8.3 mph S13.4 kmh S 13.0 mph20.9 kmh 30.04 in1017.3 mb 0.00 in0.0 mm 0.00 in0.0 mm 0.00 in0.0 mm
04:00 AM 53.1°F11.7°C 47.7°F8.7°C 82% 8.3 mph S13.4 kmh S 15.9 mph25.6 kmh 30.05 in1017.6 mb 0.00 in0.0 mm 0.00 in0.0 mm 0.00 in0.0 mm
04:15 AM 52.3°F11.3°C 47.7°F8.7°C 84% 9.2 mph S14.8 kmh S 16.8 mph27.0 kmh 30.04 in1017.3 mb 0.00 in0.0 mm 0.00 in0.0 mm 0.00 in0.0 mm
04:30 AM 52.2°F11.2°C 48.1°F8.9°C 86% 6.0 mph SSE9.7 kmh SSE 13.6 mph21.9 kmh 30.05 in1017.6 mb 0.00 in0.0 mm 0.00 in0.0 mm 0.00 in0.0 mm
04:45 AM 52.0°F11.1°C 47.9°F8.8°C 86% 5.4 mph S8.7 kmh S 13.6 mph21.9 kmh 30.04 in1017.3 mb 0.00 in0.0 mm 0.00 in0.0 mm 0.00 in0.0 mm
05:00 AM 52.2°F11.2°C 47.8°F8.8°C 85% 9.2 mph S14.8 kmh S 15.2 mph24.5 kmh 30.04 in1017.3 mb 0.00 in0.0 mm 0.00 in0.0 mm 0.00 in0.0 mm
05:15 AM 52.0°F11.1°C 47.6°F8.7°C 85% 6.9 mph S11.1 kmh S 13.6 mph21.9 kmh 30.03 in1016.9 mb 0.00 in0.0 mm 0.00 in0.0 mm 0.00 in0.0 mm
05:30 AM 52.0°F11.1°C 47.6°F8.7°C 85% 6.9 mph S11.1 kmh S 13.6 mph21.9 kmh 30.02 in1016.6 mb 0.00 in0.0 mm 0.00 in0.0 mm 0.00 in0.0 mm
05:45 AM 52.2°F11.2°C 47.8°F8.8°C 85% 9.2 mph S14.8 kmh S 13.0 mph20.9 kmh 30.03 in1016.9 mb 0.00 in0.0 mm 0.00 in0.0 mm 0.00 in0.0 mm
06:00 AM 52.2°F11.2°C 47.8°F8.8°C 85% 6.9 mph S11.1 kmh S 13.6 mph21.9 kmh 30.03 in1016.9 mb 0.00 in0.0 mm 0.00 in0.0 mm 0.00 in0.0 mm
06:15 AM 52.2°F11.2°C 46.8°F8.2°C 82% 9.2 mph S14.8 kmh S 15.9 mph25.6 kmh 30.02 in1016.6 mb 0.00 in0.0 mm 0.00 in0.0 mm 0.00 in0.0 mm
06:30 AM 52.2°F11.2°C 46.8°F8.2°C 82% 14.5 mph S23.3 kmh S 18.3 mph29.5 kmh 30.02 in1016.6 mb 0.00 in0.0 mm 0.00 in0.0 mm 0.00 in0.0 mm
06:45 AM 52.2°F11.2°C 46.8°F8.2°C 82% 10.7 mph S17.2 kmh S 13.6 mph21.9 kmh 30.03 in1016.9 mb 0.00 in0.0 mm 0.00 in0.0 mm 0.00 in0.0 mm
07:00 AM 52.2°F11.2°C 46.8°F8.2°C 82% 10.7 mph SSE17.2 kmh SSE 15.9 mph25.6 kmh 30.04 in1017.3 mb 0.00 in0.0 mm 0.00 in0.0 mm 0.00 in0.0 mm
07:15 AM 52.2°F11.2°C 46.5°F8.1°C 81% 13.0 mph S20.9 kmh S 16.8 mph27.0 kmh 30.05 in1017.6 mb 0.00 in0.0 mm 0.00 in0.0 mm 0.00 in0.0 mm
07:30 AM 52.2°F11.2°C 46.5°F8.1°C 81% 6.9 mph S11.1 kmh S 16.8 mph27.0 kmh 30.04 in1017.3 mb 0.00 in0.0 mm 0.00 in0.0 mm 0.00 in0.0 mm
07:45 AM 51.8°F11.0°C 45.8°F7.7°C 80% 8.3 mph S13.4 kmh S 14.5 mph23.3 kmh 30.05 in1017.6 mb 0.00 in0.0 mm 0.00 in0.0 mm 0.00 in0.0 mm
08:00 AM 52.2°F11.2°C 45.9°F7.7°C 79% 10.7 mph S17.2 kmh S 18.3 mph29.5 kmh 30.06 in1017.9 mb 0.00 in0.0 mm 0.00 in0.0 mm 0.00 in0.0 mm
08:15 AM 51.8°F11.0°C 45.5°F7.5°C 79% 10.7 mph SSE17.2 kmh SSE 18.3 mph29.5 kmh 30.07 in1018.3 mb 0.00 in0.0 mm 0.00 in0.0 mm 0.00 in0.0 mm
08:30 AM 51.8°F11.0°C 45.8°F7.7°C 80% 11.4 mph S18.3 kmh S 15.2 mph24.5 kmh 30.07 in1018.3 mb 0.00 in0.0 mm 0.00 in0.0 mm 0.00 in0.0 mm
08:45 AM 51.6°F10.9°C 46.0°F7.8°C 81% 5.4 mph SSE8.7 kmh SSE 15.2 mph24.5 kmh 30.07 in1018.3 mb 0.00 in0.0 mm 0.00 in0.0 mm 0.00 in0.0 mm
09:00 AM 51.4°F10.8°C 46.1°F7.8°C 82% 5.4 mph S8.7 kmh S 13.0 mph20.9 kmh 30.08 in1018.6 mb 0.00 in0.0 mm 0.00 in0.0 mm 0.00 in0.0 mm
09:15 AM 51.8°F11.0°C 46.5°F8.1°C 82% 6.9 mph S11.1 kmh S 9.8 mph15.8 kmh 30.08 in1018.6 mb 0.00 in0.0 mm 0.00 in0.0 mm 0.00 in0.0 mm
09:30 AM 51.6°F10.9°C 46.6°F8.1°C 83% 6.0 mph S9.7 kmh S 13.0 mph20.9 kmh 30.08 in1018.6 mb 0.00 in0.0 mm 0.00 in0.0 mm 0.00 in0.0 mm
09:45 AM 51.6°F10.9°C 46.6°F8.1°C 83% 6.0 mph S9.7 kmh S 11.4 mph18.3 kmh 30.09 in1019.0 mb 0.00 in0.0 mm 0.00 in0.0 mm 0.00 in0.0 mm
10:00 AM 51.8°F11.0°C 46.2°F7.9°C 81% 9.2 mph S14.8 kmh S 13.0 mph20.9 kmh 30.09 in1019.0 mb 0.00 in0.0 mm 0.00 in0.0 mm 0.00 in0.0 mm
10:15 AM 51.8°F11.0°C 46.2°F7.9°C 81% 7.6 mph S12.2 kmh S 12.1 mph19.5 kmh 30.10 in1019.3 mb 0.00 in0.0 mm 0.00 in0.0 mm 0.00 in0.0 mm
10:30 AM 52.0°F11.1°C 46.0°F7.8°C 80% 5.4 mph SE8.7 kmh SE 10.7 mph17.2 kmh 30.11 in1019.6 mb 0.00 in0.0 mm 0.00 in0.0 mm 0.00 in0.0 mm
10:45 AM 52.0°F11.1°C 46.0°F7.8°C 80% 6.9 mph SSE11.1 kmh SSE 13.0 mph20.9 kmh 30.11 in1019.6 mb 0.00 in0.0 mm 0.00 in0.0 mm 0.00 in0.0 mm
11:00 AM 52.2°F11.2°C 45.9°F7.7°C 79% 6.0 mph S9.7 kmh S 12.1 mph19.5 kmh 30.11 in1019.6 mb 0.00 in0.0 mm 0.00 in0.0 mm 0.00 in0.0 mm
11:15 AM 52.3°F11.3°C 45.7°F7.6°C 78% 8.3 mph S13.4 kmh S 12.1 mph19.5 kmh 30.12 in1020.0 mb 0.00 in0.0 mm 0.00 in0.0 mm 0.00 in0.0 mm
11:30 AM 52.7°F11.5°C 45.7°F7.6°C 77% 6.0 mph S9.7 kmh S 13.6 mph21.9 kmh 30.12 in1020.0 mb 0.00 in0.0 mm 0.00 in0.0 mm 0.00 in0.0 mm
11:45 AM 54.5°F12.5°C 46.7°F8.2°C 75% 3.8 mph SSW6.1 kmh SSW 10.7 mph17.2 kmh 30.12 in1020.0 mb 0.00 in0.0 mm 0.00 in0.0 mm 0.00 in0.0 mm
12:00 PM 55.6°F13.1°C 46.3°F7.9°C 71% 12.1 mph S19.5 kmh S 15.9 mph25.6 kmh 30.11 in1019.6 mb 0.00 in0.0 mm 0.00 in0.0 mm 0.00 in0.0 mm
12:15 PM 55.0°F12.8°C 45.8°F7.7°C 71% 6.9 mph S11.1 kmh S 14.5 mph23.3 kmh 30.11 in1019.6 mb 0.00 in0.0 mm 0.00 in0.0 mm 0.00 in0.0 mm
12:30 PM 56.1°F13.4°C 46.1°F7.8°C 69% 5.4 mph S8.7 kmh S 15.2 mph24.5 kmh 30.10 in1019.3 mb 0.00 in0.0 mm 0.00 in0.0 mm 0.00 in0.0 mm
12:45 PM 56.3°F13.5°C 47.4°F8.6°C 72% 6.9 mph S11.1 kmh S 15.2 mph24.5 kmh 30.10 in1019.3 mb 0.00 in0.0 mm 0.00 in0.0 mm 0.00 in0.0 mm
01:00 PM 58.1°F14.5°C 48.0°F8.9°C 69% 6.9 mph S11.1 kmh S 13.6 mph21.9 kmh 30.10 in1019.3 mb 0.00 in0.0 mm 0.00 in0.0 mm 0.00 in0.0 mm
01:15 PM 57.4°F14.1°C 46.5°F8.1°C 67% 5.4 mph S8.7 kmh S 15.2 mph24.5 kmh 30.09 in1019.0 mb 0.00 in0.0 mm 0.00 in0.0 mm 0.00 in0.0 mm
01:30 PM 58.1°F14.5°C 45.6°F7.6°C 63% 9.8 mph S15.8 kmh S 19.7 mph31.7 kmh 30.09 in1019.0 mb 0.00 in0.0 mm 0.00 in0.0 mm 0.00 in0.0 mm
01:45 PM 58.5°F14.7°C 45.1°F7.3°C 61% 6.0 mph S9.7 kmh S 15.2 mph24.5 kmh 30.09 in1019.0 mb 0.00 in0.0 mm 0.00 in0.0 mm 0.00 in0.0 mm
02:00 PM 58.6°F14.8°C 45.7°F7.6°C 62% 10.7 mph S17.2 kmh S 15.2 mph24.5 kmh 30.08 in1018.6 mb 0.00 in0.0 mm 0.00 in0.0 mm 0.00 in0.0 mm
02:15 PM 58.1°F14.5°C 44.7°F7.1°C 61% 6.9 mph SSE11.1 kmh SSE 14.5 mph23.3 kmh 30.08 in1018.6 mb 0.00 in0.0 mm 0.00 in0.0 mm 0.00 in0.0 mm
02:30 PM 58.1°F14.5°C 44.3°F6.8°C 60% 6.9 mph S11.1 kmh S 15.9 mph25.6 kmh 30.08 in1018.6 mb 0.00 in0.0 mm 0.00 in0.0 mm 0.00 in0.0 mm
02:45 PM 59.2°F15.1°C 43.5°F6.4°C 56% 9.8 mph S15.8 kmh S 16.8 mph27.0 kmh 30.07 in1018.3 mb 0.00 in0.0 mm 0.00 in0.0 mm 0.00 in0.0 mm
03:00 PM 58.3°F14.6°C 42.7°F5.9°C 56% 11.4 mph S18.3 kmh S 19.0 mph30.6 kmh 30.07 in1018.3 mb 0.00 in0.0 mm 0.00 in0.0 mm 0.00 in0.0 mm
03:15 PM 57.9°F14.4°C 42.8°F6.0°C 57% 9.2 mph S14.8 kmh S 15.2 mph24.5 kmh 30.07 in1018.3 mb 0.00 in0.0 mm 0.00 in0.0 mm 0.00 in0.0 mm
03:30 PM 58.3°F14.6°C 42.7°F5.9°C 56% 11.4 mph S18.3 kmh S 15.2 mph24.5 kmh 30.07 in1018.3 mb 0.00 in0.0 mm 0.00 in0.0 mm 0.00 in0.0 mm
03:45 PM 56.1°F13.4°C 42.0°F5.6°C 59% 8.3 mph S13.4 kmh S 16.8 mph27.0 kmh 30.07 in1018.3 mb 0.00 in0.0 mm 0.00 in0.0 mm 0.00 in0.0 mm
04:00 PM 57.7°F14.3°C 43.1°F6.2°C 58% 6.0 mph S9.7 kmh S 15.9 mph25.6 kmh 30.07 in1018.3 mb 0.00 in0.0 mm 0.00 in0.0 mm 0.00 in0.0 mm
04:15 PM 58.6°F14.8°C 42.5°F5.8°C 55% 6.9 mph S11.1 kmh S 13.6 mph21.9 kmh 30.07 in1018.3 mb 0.00 in0.0 mm 0.00 in0.0 mm 0.00 in0.0 mm
04:30 PM 58.1°F14.5°C 42.0°F5.6°C 55% 7.6 mph S12.2 kmh S 16.8 mph27.0 kmh 30.07 in1018.3 mb 0.00 in0.0 mm 0.00 in0.0 mm 0.00 in0.0 mm
04:45 PM 58.1°F14.5°C 41.6°F5.3°C 54% 12.1 mph S19.5 kmh S 15.9 mph25.6 kmh 30.07 in1018.3 mb 0.00 in0.0 mm 0.00 in0.0 mm 0.00 in0.0 mm
05:00 PM 59.4°F15.2°C 41.7°F5.4°C 52% 6.9 mph S11.1 kmh S 16.8 mph27.0 kmh 30.07 in1018.3 mb 0.00 in0.0 mm 0.00 in0.0 mm 0.00 in0.0 mm
05:15 PM 57.7°F14.3°C 41.7°F5.4°C 55% 8.3 mph S13.4 kmh S 16.8 mph27.0 kmh 30.07 in1018.3 mb 0.00 in0.0 mm 0.00 in0.0 mm 0.00 in0.0 mm
05:30 PM 56.1°F13.4°C 41.6°F5.3°C 58% 9.8 mph S15.8 kmh S 15.9 mph25.6 kmh 30.08 in1018.6 mb 0.00 in0.0 mm 0.00 in0.0 mm 0.00 in0.0 mm
05:45 PM 55.9°F13.3°C 41.8°F5.4°C 59% 3.8 mph S6.1 kmh S 13.0 mph20.9 kmh 30.08 in1018.6 mb 0.00 in0.0 mm 0.00 in0.0 mm 0.00 in0.0 mm
06:00 PM 54.9°F12.7°C 42.5°F5.8°C 63% 9.2 mph SSE14.8 kmh SSE 11.4 mph18.3 kmh 30.09 in1019.0 mb 0.00 in0.0 mm 0.00 in0.0 mm 0.00 in0.0 mm
06:15 PM 54.0°F12.2°C 42.1°F5.6°C 64% 3.1 mph SSE5.0 kmh SSE 11.4 mph18.3 kmh 30.09 in1019.0 mb 0.00 in0.0 mm 0.00 in0.0 mm 0.00 in0.0 mm
06:30 PM 53.4°F11.9°C 42.0°F5.6°C 65% 5.4 mph SSE8.7 kmh SSE 13.0 mph20.9 kmh 30.09 in1019.0 mb 0.00 in0.0 mm 0.00 in0.0 mm 0.00 in0.0 mm
06:45 PM 52.7°F11.5°C 41.7°F5.4°C 66% 3.8 mph SSE6.1 kmh SSE 9.8 mph15.8 kmh 30.11 in1019.6 mb 0.00 in0.0 mm 0.00 in0.0 mm 0.00 in0.0 mm
07:00 PM 52.3°F11.3°C 41.3°F5.2°C 66% 3.1 mph S5.0 kmh S 9.8 mph15.8 kmh 30.10 in1019.3 mb 0.00 in0.0 mm 0.00 in0.0 mm 0.00 in0.0 mm
07:15 PM 52.0°F11.1°C 41.0°F5.0°C 66% 4.5 mph S7.2 kmh S 8.3 mph13.4 kmh 30.11 in1019.6 mb 0.00 in0.0 mm 0.00 in0.0 mm 0.00 in0.0 mm
07:30 PM 51.6°F10.9°C 41.4°F5.2°C 68% 4.5 mph S7.2 kmh S 9.8 mph15.8 kmh 30.12 in1020.0 mb 0.00 in0.0 mm 0.00 in0.0 mm 0.00 in0.0 mm
07:45 PM 51.6°F10.9°C 41.0°F5.0°C 67% 3.8 mph S6.1 kmh S 9.8 mph15.8 kmh 30.12 in1020.0 mb 0.00 in0.0 mm 0.00 in0.0 mm 0.00 in0.0 mm
08:00 PM 51.4°F10.8°C 41.2°F5.1°C 68% 6.0 mph S9.7 kmh S 9.2 mph14.8 kmh 30.12 in1020.0 mb 0.00 in0.0 mm 0.00 in0.0 mm 0.00 in0.0 mm
08:15 PM 51.3°F10.7°C 41.1°F5.1°C 68% 5.4 mph S8.7 kmh S 8.3 mph13.4 kmh 30.13 in1020.3 mb 0.00 in0.0 mm 0.00 in0.0 mm 0.00 in0.0 mm
08:30 PM 51.6°F10.9°C 41.0°F5.0°C 67% 5.4 mph S8.7 kmh S 9.2 mph14.8 kmh 30.14 in1020.7 mb 0.00 in0.0 mm 0.00 in0.0 mm 0.00 in0.0 mm
08:45 PM 51.6°F10.9°C 41.4°F5.2°C 68% 6.0 mph S9.7 kmh S 9.8 mph15.8 kmh 30.14 in1020.7 mb 0.00 in0.0 mm 0.00 in0.0 mm 0.00 in0.0 mm
09:00 PM 51.6°F10.9°C 42.2°F5.7°C 70% 6.9 mph S11.1 kmh S 13.0 mph20.9 kmh 30.14 in1020.7 mb 0.00 in0.0 mm 0.00 in0.0 mm 0.00 in0.0 mm
09:15 PM 51.6°F10.9°C 41.0°F5.0°C 67% 5.4 mph SSE8.7 kmh SSE 13.0 mph20.9 kmh 30.14 in1020.7 mb 0.00 in0.0 mm 0.00 in0.0 mm 0.00 in0.0 mm
09:30 PM 51.3°F10.7°C 39.9°F4.4°C 65% 3.8 mph S6.1 kmh S 13.6 mph21.9 kmh 30.15 in1021.0 mb 0.00 in0.0 mm 0.00 in0.0 mm 0.00 in0.0 mm
09:45 PM 51.3°F10.7°C 39.9°F4.4°C 65% 6.0 mph S9.7 kmh S 11.4 mph18.3 kmh 30.16 in1021.3 mb 0.00 in0.0 mm 0.00 in0.0 mm 0.00 in0.0 mm
10:00 PM 50.9°F10.5°C 39.6°F4.2°C 65% 6.9 mph SSE11.1 kmh SSE 12.1 mph19.5 kmh 30.16 in1021.3 mb 0.00 in0.0 mm 0.00 in0.0 mm 0.00 in0.0 mm
10:15 PM 50.7°F10.4°C 39.4°F4.1°C 65% 4.5 mph S7.2 kmh S 12.1 mph19.5 kmh 30.18 in1022.0 mb 0.00 in0.0 mm 0.00 in0.0 mm 0.00 in0.0 mm
10:30 PM 50.4°F10.2°C 39.1°F3.9°C 65% 6.0 mph S9.7 kmh S 11.4 mph18.3 kmh 30.18 in1022.0 mb 0.00 in0.0 mm 0.00 in0.0 mm 0.00 in0.0 mm
10:45 PM 50.2°F10.1°C 39.3°F4.1°C 66% 5.4 mph S8.7 kmh S 13.0 mph20.9 kmh 30.19 in1022.4 mb 0.00 in0.0 mm 0.00 in0.0 mm 0.00 in0.0 mm
11:00 PM 50.0°F10.0°C 39.5°F4.2°C 67% 6.0 mph S9.7 kmh S 12.1 mph19.5 kmh 30.19 in1022.4 mb 0.00 in0.0 mm 0.00 in0.0 mm 0.00 in0.0 mm
11:15 PM 49.8°F9.9°C 40.1°F4.5°C 69% 6.9 mph S11.1 kmh S 10.7 mph17.2 kmh 30.20 in1022.7 mb 0.00 in0.0 mm 0.00 in0.0 mm 0.00 in0.0 mm
11:30 PM 49.8°F9.9°C 40.1°F4.5°C 69% 8.3 mph S13.4 kmh S 12.1 mph19.5 kmh 30.20 in1022.7 mb 0.00 in0.0 mm 0.00 in0.0 mm 0.00 in0.0 mm
11:45 PM 49.6°F9.8°C 39.9°F4.4°C 69% 6.9 mph S11.1 kmh S 9.8 mph15.8 kmh 30.21 in1023.0 mb 0.00 in0.0 mm 0.00 in0.0 mm 0.00 in0.0 mm